Time;durP1;ratioP1;P1;durP2;ratioP2;P2;SDS_P1;SDS_P2;PMS_P1;PMS_P2;Temp;Humidity;BMP_temperature;BMP_pressure;BME280_temperature;BME280_humidity;BME280_pressure;Samples;Min_cycle;Max_cycle;Signal;HPM_P1;HPM_P2
2023/06/25 00:00:32;;;;;;;3.50;2.77;;;18.50;71.80;;;;;;5053967;28;20651;-71
2023/06/25 00:02:59;;;;;;;3.77;2.83;;;18.60;69.80;;;;;;5031190;28;20813;-70
2023/06/25 00:05:26;;;;;;;3.50;2.80;;;18.70;69.40;;;;;;5066480;28;20663;-70
2023/06/25 00:07:53;;;;;;;3.47;3.17;;;18.70;68.60;;;;;;5063015;28;20627;-71
2023/06/25 00:10:20;;;;;;;7.73;4.13;;;18.80;69.10;;;;;;5072865;28;20657;-70
2023/06/25 00:12:46;;;;;;;2.80;2.50;;;18.70;70.00;;;;;;5029873;28;21021;-71
2023/06/25 00:15:15;;;;;;;4.07;3.20;;;18.70;70.20;;;;;;5048277;28;20623;-70
2023/06/25 00:17:47;;;;;;;3.47;3.00;;;18.60;70.40;;;;;;5052455;27;21130;-70
2023/06/25 00:20:14;;;;;;;3.37;2.60;;;18.50;70.00;;;;;;5055443;27;21156;-71
2023/06/25 00:22:41;;;;;;;4.23;2.80;;;18.50;70.30;;;;;;5064221;27;20626;-70
2023/06/25 00:25:08;;;;;;;3.37;2.83;;;18.40;72.10;;;;;;5049331;27;20629;-71
2023/06/25 00:27:35;;;;;;;2.87;2.57;;;18.50;71.10;;;;;;5079159;27;20676;-71
2023/06/25 00:30:02;;;;;;;2.83;2.63;;;18.50;70.40;;;;;;5029138;28;20634;-71
2023/06/25 00:32:31;;;;;;;3.37;3.07;;;18.50;71.00;;;;;;5023293;28;20658;-70
2023/06/25 00:34:59;;;;;;;4.37;3.13;;;18.50;70.50;;;;;;5052467;27;20982;-70
2023/06/25 00:37:25;;;;;;;4.07;3.10;;;18.40;71.10;;;;;;5028440;27;20709;-70
2023/06/25 00:39:52;;;;;;;3.23;2.90;;;18.40;72.50;;;;;;5044596;27;20919;-70
2023/06/25 00:42:19;;;;;;;2.93;2.73;;;18.20;72.80;;;;;;5038510;27;20646;-70
2023/06/25 00:44:46;;;;;;;5.20;4.27;;;18.20;73.60;;;;;;5069275;27;20642;-70
2023/06/25 00:47:16;;;;;;;3.60;2.63;;;18.10;74.50;;;;;;5065993;27;20665;-70
2023/06/25 00:49:45;;;;;;;3.13;2.90;;;18.10;74.30;;;;;;5064675;27;20903;-70
2023/06/25 00:52:13;;;;;;;3.73;3.40;;;18.00;74.30;;;;;;5070132;27;20643;-70
2023/06/25 00:54:41;;;;;;;2.80;2.60;;;17.90;75.50;;;;;;5049387;27;20635;-70
2023/06/25 00:57:09;;;;;;;3.40;3.10;;;17.90;76.10;;;;;;5037408;27;20657;-70
2023/06/25 00:59:38;;;;;;;4.10;3.13;;;17.90;76.60;;;;;;5033929;28;20630;-70
2023/06/25 01:02:13;;;;;;;4.43;3.37;;;17.80;77.20;;;;;;5052706;27;20647;-70
2023/06/25 01:04:50;;;;;;;3.50;2.70;;;17.70;77.00;;;;;;5033140;27;21168;-70
2023/06/25 01:07:22;;;;;;;3.33;3.03;;;17.70;76.80;;;;;;5034714;27;20684;-70
2023/06/25 01:09:50;;;;;;;4.10;3.27;;;17.60;76.60;;;;;;5034645;27;20624;-70
2023/06/25 01:12:18;;;;;;;2.90;2.30;;;17.60;76.80;;;;;;5031942;27;20655;-70
2023/06/25 01:14:44;;;;;;;3.80;3.33;;;17.60;76.10;;;;;;5041436;27;20632;-70
2023/06/25 01:17:12;;;;;;;3.63;3.17;;;17.60;75.80;;;;;;5051278;27;20703;-70
2023/06/25 01:19:40;;;;;;;2.40;1.90;;;17.50;76.00;;;;;;5039657;27;20642;-70
2023/06/25 01:22:10;;;;;;;3.50;3.20;;;17.50;75.80;;;;;;5032600;27;21377;-70
2023/06/25 01:24:39;;;;;;;5.17;3.20;;;17.50;75.90;;;;;;5033493;27;21174;-70
2023/06/25 01:27:07;;;;;;;2.93;2.57;;;17.50;76.00;;;;;;5076868;27;20662;-70
2023/06/25 01:29:34;;;;;;;2.80;2.60;;;17.50;76.80;;;;;;5048814;27;20638;-70
2023/06/25 01:32:01;;;;;;;3.00;2.60;;;17.40;78.50;;;;;;5044290;27;20766;-70
2023/06/25 01:34:28;;;;;;;3.50;3.10;;;17.40;78.90;;;;;;5049962;27;20612;-70
2023/06/25 01:36:55;;;;;;;3.10;2.90;;;17.30;79.80;;;;;;5068816;27;20650;-70
2023/06/25 01:39:23;;;;;;;4.33;2.93;;;17.30;80.30;;;;;;5045770;27;20642;-70
2023/06/25 01:41:52;;;;;;;2.60;2.40;;;17.30;80.20;;;;;;5025251;28;21422;-70
2023/06/25 01:44:25;;;;;;;3.27;2.97;;;17.20;80.20;;;;;;5078533;27;20703;-70
2023/06/25 01:46:53;;;;;;;3.57;3.27;;;17.20;81.30;;;;;;5079074;27;20674;-70
2023/06/25 01:49:20;;;;;;;4.10;2.80;;;17.20;78.70;;;;;;5036605;28;20696;-70
2023/06/25 01:51:49;;;;;;;3.60;2.87;;;17.30;78.40;;;;;;5040045;27;20675;-70
2023/06/25 01:54:16;;;;;;;2.90;2.60;;;17.20;78.40;;;;;;5066671;27;20628;-70
2023/06/25 01:56:44;;;;;;;2.67;2.47;;;17.20;77.80;;;;;;5042024;27;20650;-70
2023/06/25 01:59:14;;;;;;;4.10;3.70;;;17.20;77.40;;;;;;5062067;27;20671;-70
2023/06/25 02:01:42;;;;;;;3.63;2.70;;;17.20;78.00;;;;;;5044283;27;20661;-70
2023/06/25 02:04:09;;;;;;;2.83;2.60;;;17.10;78.40;;;;;;5031796;27;20620;-70
2023/06/25 02:06:37;;;;;;;2.67;2.47;;;17.10;79.80;;;;;;5076360;27;20685;-70
2023/06/25 02:09:04;;;;;;;2.73;2.50;;;17.00;81.20;;;;;;5021642;28;20626;-70
2023/06/25 02:11:31;;;;;;;2.97;2.67;;;17.00;81.40;;;;;;5081038;27;20662;-70
2023/06/25 02:13:58;;;;;;;2.80;2.20;;;17.10;79.90;;;;;;5079918;27;20627;-70
2023/06/25 02:16:26;;;;;;;4.70;2.77;;;17.00;80.40;;;;;;5091162;27;20663;-70
2023/06/25 02:18:53;;;;;;;2.27;2.07;;;17.00;79.30;;;;;;5091095;27;20620;-70
2023/06/25 02:21:20;;;;;;;3.50;3.07;;;16.90;79.80;;;;;;5052552;27;20693;-70
2023/06/25 02:23:47;;;;;;;3.40;2.63;;;16.90;81.10;;;;;;5090179;27;21008;-70
2023/06/25 02:26:15;;;;;;;2.83;2.63;;;16.90;79.70;;;;;;5083790;27;20740;-70
2023/06/25 02:28:43;;;;;;;3.50;2.83;;;17.10;79.50;;;;;;5060560;27;21021;-70
2023/06/25 02:31:10;;;;;;;3.30;2.90;;;17.10;80.40;;;;;;5053227;27;20666;-70
2023/06/25 02:33:39;;;;;;;3.73;3.07;;;17.00;81.00;;;;;;5068186;27;20627;-70
2023/06/25 02:36:07;;;;;;;3.10;2.80;;;17.00;81.60;;;;;;5040473;27;20659;-70
2023/06/25 02:38:34;;;;;;;4.60;3.20;;;17.00;81.60;;;;;;5068349;27;20628;-70
2023/06/25 02:41:02;;;;;;;3.13;2.83;;;17.00;81.20;;;;;;5037613;27;20663;-70
2023/06/25 02:43:29;;;;;;;3.77;3.37;;;17.00;80.50;;;;;;5071013;27;21022;-70
2023/06/25 02:45:56;;;;;;;3.40;2.87;;;17.00;80.00;;;;;;5054054;27;20662;-71
2023/06/25 02:48:24;;;;;;;3.67;3.37;;;16.90;80.00;;;;;;5082295;27;20670;-71
2023/06/25 02:50:53;;;;;;;4.40;3.00;;;16.80;81.60;;;;;;5068127;27;20655;-71
2023/06/25 02:53:20;;;;;;;3.87;3.10;;;16.60;82.50;;;;;;5065095;27;20625;-71
2023/06/25 02:55:47;;;;;;;4.47;2.73;;;16.60;83.30;;;;;;5027369;28;20658;-71
2023/06/25 02:58:15;;;;;;;4.07;3.23;;;16.50;84.10;;;;;;5027360;28;20644;-71
2023/06/25 03:00:43;;;;;;;4.37;3.53;;;16.50;84.70;;;;;;5039772;27;20773;-71
2023/06/25 03:03:10;;;;;;;3.80;3.40;;;16.40;84.20;;;;;;5065414;27;20639;-71
2023/06/25 03:05:37;;;;;;;3.37;3.07;;;16.40;84.60;;;;;;5074086;27;20695;-71
2023/06/25 03:08:06;;;;;;;4.10;3.23;;;16.30;85.20;;;;;;5034441;28;20663;-71
2023/06/25 03:10:37;;;;;;;3.43;3.13;;;16.30;86.30;;;;;;5079274;27;20661;-71
2023/06/25 03:13:05;;;;;;;3.30;3.03;;;16.40;86.20;;;;;;5030674;28;20980;-71
2023/06/25 03:15:34;;;;;;;3.83;3.43;;;16.20;86.40;;;;;;5042215;28;20720;-71
2023/06/25 03:18:01;;;;;;;3.70;3.40;;;16.20;86.30;;;;;;5067952;28;20620;-71
2023/06/25 03:20:28;;;;;;;4.40;3.47;;;16.10;85.60;;;;;;5078894;28;20643;-71
2023/06/25 03:22:55;;;;;;;3.10;2.80;;;16.20;85.10;;;;;;5022322;27;20632;-71
2023/06/25 03:25:23;;;;;;;3.57;2.90;;;16.10;84.60;;;;;;5079948;28;20666;-71
2023/06/25 03:27:50;;;;;;;3.50;3.20;;;16.10;85.60;;;;;;5044107;27;20651;-71
2023/06/25 03:30:16;;;;;;;3.63;3.33;;;16.00;85.90;;;;;;5087586;28;20618;-71
2023/06/25 03:32:44;;;;;;;3.70;3.00;;;16.00;86.80;;;;;;5078549;28;20685;-71
2023/06/25 03:35:11;;;;;;;4.50;3.70;;;16.00;87.20;;;;;;5034634;28;20657;-71
2023/06/25 03:37:38;;;;;;;3.67;3.27;;;16.00;87.80;;;;;;5064423;27;20715;-71
2023/06/25 03:40:06;;;;;;;3.90;3.30;;;16.00;86.20;;;;;;5083611;27;20658;-71
2023/06/25 03:42:34;;;;;;;3.40;2.83;;;15.90;87.80;;;;;;5070820;28;20728;-71
2023/06/25 03:45:01;;;;;;;4.00;3.60;;;15.90;89.00;;;;;;5079422;28;20975;-71
2023/06/25 03:47:28;;;;;;;4.67;3.33;;;15.90;89.30;;;;;;5084631;27;20678;-71
2023/06/25 03:49:54;;;;;;;3.93;3.03;;;15.90;89.80;;;;;;5081769;28;20630;-71
2023/06/25 03:52:21;;;;;;;3.27;2.97;;;15.90;88.70;;;;;;5041749;28;20662;-71
2023/06/25 03:54:48;;;;;;;4.67;4.13;;;16.00;88.00;;;;;;5082834;27;21195;-71
2023/06/25 03:57:15;;;;;;;3.93;3.07;;;15.90;89.70;;;;;;5077439;27;20659;-71
2023/06/25 03:59:43;;;;;;;3.60;3.30;;;15.90;89.90;;;;;;5051477;27;20626;-71
2023/06/25 04:02:10;;;;;;;4.63;3.20;;;15.90;90.10;;;;;;5090956;27;20987;-71
2023/06/25 04:04:36;;;;;;;4.70;3.77;;;16.00;90.50;;;;;;5038989;27;20629;-71
2023/06/25 04:07:03;;;;;;;3.90;3.30;;;16.00;90.40;;;;;;5057342;27;20677;-71
2023/06/25 04:09:30;;;;;;;2.93;2.70;;;15.90;90.60;;;;;;5044834;27;20625;-71
2023/06/25 04:11:57;;;;;;;3.43;2.80;;;16.00;90.60;;;;;;5053464;27;20660;-71
2023/06/25 04:14:24;;;;;;;2.60;2.40;;;16.00;90.10;;;;;;5064644;27;20620;-71
2023/06/25 04:16:52;;;;;;;3.67;2.53;;;16.00;90.50;;;;;;5039868;27;20672;-71
2023/06/25 04:19:18;;;;;;;4.03;2.87;;;16.10;90.00;;;;;;5073832;27;20630;-71
2023/06/25 04:21:45;;;;;;;3.07;2.77;;;16.10;90.20;;;;;;5095483;27;20762;-71
2023/06/25 04:24:12;;;;;;;3.53;3.23;;;16.10;90.50;;;;;;5034402;27;20633;-71
2023/06/25 04:26:39;;;;;;;3.50;2.40;;;16.20;89.70;;;;;;5082696;27;20654;-71
2023/06/25 04:29:05;;;;;;;5.40;3.67;;;16.30;89.90;;;;;;5058214;27;20633;-70
2023/06/25 04:31:32;;;;;;;4.07;3.47;;;16.30;90.90;;;;;;5065087;27;20661;-71
2023/06/25 04:34:00;;;;;;;5.13;3.50;;;16.50;90.70;;;;;;5064466;27;20622;-71
2023/06/25 04:36:27;;;;;;;4.30;3.37;;;16.60;90.30;;;;;;5093506;27;20647;-71
2023/06/25 04:38:54;;;;;;;3.40;2.73;;;16.80;90.50;;;;;;5057054;27;20650;-70
2023/06/25 04:41:21;;;;;;;5.63;4.50;;;16.90;90.30;;;;;;5051679;27;20650;-70
2023/06/25 04:43:48;;;;;;;4.80;3.20;;;17.00;88.70;;;;;;5038997;27;20718;-70
2023/06/25 04:46:14;;;;;;;3.20;2.67;;;17.10;87.80;;;;;;5082354;27;20654;-70
2023/06/25 04:48:45;;;;;;;3.50;2.83;;;17.30;86.70;;;;;;5066541;27;20675;-71
2023/06/25 04:51:13;;;;;;;3.10;2.80;;;17.50;86.10;;;;;;5081711;27;20641;-70
2023/06/25 04:53:40;;;;;;;4.33;2.60;;;17.40;84.70;;;;;;5064289;27;20974;-70
2023/06/25 04:56:07;;;;;;;3.30;3.00;;;17.50;85.30;;;;;;5093962;27;21280;-71
2023/06/25 04:58:35;;;;;;;4.20;3.13;;;17.70;84.20;;;;;;5050778;27;20630;-71
2023/06/25 05:01:02;;;;;;;3.93;2.63;;;17.80;81.80;;;;;;5056833;27;20654;-70
2023/06/25 05:03:29;;;;;;;4.03;3.60;;;17.80;80.60;;;;;;5050099;27;20639;-71
2023/06/25 05:05:56;;;;;;;4.00;3.53;;;17.90;80.00;;;;;;5080748;27;20658;-71
2023/06/25 05:08:24;;;;;;;5.43;3.53;;;17.90;79.60;;;;;;5069349;27;21254;-71
2023/06/25 05:10:52;;;;;;;5.27;3.70;;;18.00;79.80;;;;;;5071565;27;21251;-71
2023/06/25 05:13:22;;;;;;;3.20;2.87;;;18.10;79.80;;;;;;5064251;27;20626;-71
2023/06/25 05:15:54;;;;;;;3.10;2.87;;;18.20;78.90;;;;;;5037888;27;21254;-71
2023/06/25 05:18:20;;;;;;;3.17;2.63;;;18.30;78.20;;;;;;5072473;27;20649;-71
2023/06/25 05:20:50;;;;;;;4.73;3.60;;;18.30;78.10;;;;;;5080748;27;20669;-71
2023/06/25 05:23:17;;;;;;;2.97;2.67;;;18.40;78.00;;;;;;5015601;28;20659;-71
2023/06/25 05:25:45;;;;;;;4.43;3.13;;;18.50;77.10;;;;;;5064150;27;20678;-71
2023/06/25 05:28:12;;;;;;;3.00;2.37;;;18.60;77.40;;;;;;5086817;27;20690;-71
2023/06/25 05:30:38;;;;;;;3.40;3.10;;;18.60;77.90;;;;;;5061799;27;20662;-71
2023/06/25 05:33:05;;;;;;;3.07;2.77;;;18.70;77.00;;;;;;5043240;27;21080;-71
2023/06/25 05:35:32;;;;;;;2.70;2.50;;;18.70;76.80;;;;;;5034078;28;20651;-70
2023/06/25 05:37:59;;;;;;;4.00;3.40;;;18.80;76.90;;;;;;5072693;27;20634;-70
2023/06/25 05:40:27;;;;;;;3.80;2.53;;;18.80;77.50;;;;;;5039350;27;20656;-70
2023/06/25 05:42:55;;;;;;;3.17;2.87;;;18.90;77.60;;;;;;5075879;27;20626;-70
2023/06/25 05:45:22;;;;;;;4.40;3.67;;;18.90;76.20;;;;;;5039525;28;20627;-70
2023/06/25 05:47:51;;;;;;;3.80;3.37;;;19.00;75.60;;;;;;5074204;27;21253;-70
2023/06/25 05:50:18;;;;;;;3.97;3.60;;;19.10;76.40;;;;;;5071562;27;20634;-70
2023/06/25 05:52:45;;;;;;;3.00;2.73;;;19.20;77.00;;;;;;5079253;27;20642;-70
2023/06/25 05:55:11;;;;;;;4.20;3.00;;;19.40;76.20;;;;;;5058390;27;20627;-70
2023/06/25 05:57:38;;;;;;;2.90;2.60;;;19.40;75.90;;;;;;5063284;27;20702;-71
2023/06/25 06:00:09;;;;;;;3.77;3.47;;;19.50;76.20;;;;;;5027565;27;20975;-72
2023/06/25 06:02:36;;;;;;;3.17;2.67;;;19.50;74.60;;;;;;5043943;27;21212;-72
2023/06/25 06:05:03;;;;;;;4.20;2.90;;;19.60;74.40;;;;;;5059042;27;20631;-71
2023/06/25 06:07:30;;;;;;;2.63;2.27;;;19.80;74.00;;;;;;5073705;27;20669;-71
2023/06/25 06:09:58;;;;;;;3.60;3.30;;;19.80;73.10;;;;;;5076158;27;20627;-71
2023/06/25 06:12:25;;;;;;;5.20;3.10;;;19.90;73.20;;;;;;5054718;27;20686;-78
2023/06/25 06:14:51;;;;;;;4.23;3.83;;;19.90;73.50;;;;;;5055146;27;20629;-71
2023/06/25 06:17:19;;;;;;;3.43;2.50;;;20.00;73.10;;;;;;5048411;27;20655;-72
2023/06/25 06:19:46;;;;;;;3.13;2.93;;;20.10;72.40;;;;;;5063834;27;21201;-74
2023/06/25 06:22:14;;;;;;;3.80;3.23;;;20.10;71.50;;;;;;5047032;27;20655;-73
2023/06/25 06:24:41;;;;;;;3.40;2.80;;;20.20;71.80;;;;;;5058952;27;21194;-73
2023/06/25 06:27:08;;;;;;;3.93;2.90;;;20.30;71.10;;;;;;5048587;27;21008;-73
2023/06/25 06:29:35;;;;;;;4.50;2.90;;;20.40;70.90;;;;;;5049387;27;20667;-73
2023/06/25 06:32:02;;;;;;;3.00;2.80;;;20.60;70.60;;;;;;5040727;27;20665;-73
2023/06/25 06:34:30;;;;;;;3.10;2.30;;;20.70;69.20;;;;;;5029008;28;20639;-73
2023/06/25 06:36:56;;;;;;;12.87;4.23;;;20.80;69.80;;;;;;5046351;27;20651;-73
2023/06/25 06:39:23;;;;;;;3.17;2.87;;;20.80;69.20;;;;;;5084898;27;20970;-73
2023/06/25 06:41:50;;;;;;;3.00;2.80;;;20.80;68.30;;;;;;5016601;28;21053;-73
2023/06/25 06:44:18;;;;;;;4.07;3.30;;;20.90;69.60;;;;;;5058361;27;21198;-73
2023/06/25 06:46:46;;;;;;;3.57;3.17;;;20.90;68.30;;;;;;5044230;27;20753;-73
2023/06/25 06:49:13;;;;;;;3.53;3.23;;;21.00;68.00;;;;;;5079129;27;20674;-73
2023/06/25 06:51:41;;;;;;;4.10;2.77;;;21.10;66.90;;;;;;5059603;27;20657;-74
2023/06/25 06:54:08;;;;;;;2.87;2.37;;;21.30;66.90;;;;;;5039751;27;21024;-74
2023/06/25 06:56:36;;;;;;;3.00;2.80;;;21.40;66.10;;;;;;5043293;27;20663;-73
2023/06/25 06:59:02;;;;;;;3.80;3.47;;;21.60;66.40;;;;;;5064266;27;20628;-73
2023/06/25 07:01:29;;;;;;;3.20;2.80;;;21.60;65.40;;;;;;5026678;28;20663;-73
2023/06/25 07:03:57;;;;;;;2.70;2.50;;;21.60;66.80;;;;;;5031551;28;20635;-73
2023/06/25 07:06:24;;;;;;;2.60;2.40;;;21.80;66.90;;;;;;5065408;27;21296;-73
2023/06/25 07:08:52;;;;;;;5.17;3.17;;;21.90;65.60;;;;;;5067656;27;20676;-73
2023/06/25 07:11:19;;;;;;;4.63;3.07;;;22.10;64.20;;;;;;5017946;28;21223;-73
2023/06/25 07:13:47;;;;;;;3.10;2.90;;;22.10;62.90;;;;;;5033440;27;20620;-73
2023/06/25 07:16:14;;;;;;;3.30;2.73;;;22.30;62.90;;;;;;5038149;27;20759;-74
2023/06/25 07:18:43;;;;;;;3.37;3.07;;;22.50;63.50;;;;;;5041602;28;20665;-74
2023/06/25 07:21:09;;;;;;;3.80;3.47;;;22.60;62.20;;;;;;5032075;28;20711;-72
2023/06/25 07:23:37;;;;;;;4.30;3.47;;;22.70;61.40;;;;;;5015603;28;21234;-75
2023/06/25 07:26:05;;;;;;;3.20;3.00;;;22.50;62.30;;;;;;5034472;27;21274;-74
2023/06/25 07:28:32;;;;;;;3.07;2.77;;;22.60;60.20;;;;;;5034826;27;20652;-73
2023/06/25 07:30:59;;;;;;;3.80;2.83;;;22.70;59.50;;;;;;5044557;27;20754;-73
2023/06/25 07:33:25;;;;;;;4.83;3.50;;;23.00;58.90;;;;;;5040848;27;20619;-73
2023/06/25 07:35:52;;;;;;;3.40;3.10;;;23.10;58.70;;;;;;5032029;28;21263;-74
2023/06/25 07:38:19;;;;;;;5.53;4.10;;;23.20;57.60;;;;;;5040591;27;20652;-72
2023/06/25 07:40:46;;;;;;;4.75;3.80;;;23.30;58.20;;;;;;5079144;27;20744;-73
2023/06/25 07:43:14;;;;;;;3.20;2.87;;;23.40;57.90;;;;;;5065009;27;20320;-73
2023/06/25 07:45:41;;;;;;;3.00;2.80;;;23.60;57.40;;;;;;5069375;27;20656;-73
2023/06/25 07:48:08;;;;;;;3.40;3.10;;;23.80;57.10;;;;;;5065464;27;20655;-73
2023/06/25 07:50:34;;;;;;;3.30;3.00;;;23.80;57.80;;;;;;5039787;27;20658;-73
2023/06/25 07:53:01;;;;;;;3.13;2.83;;;23.90;56.90;;;;;;5056305;27;21106;-73
2023/06/25 07:55:28;;;;;;;3.13;2.83;;;23.90;56.10;;;;;;5030163;28;20667;-73
2023/06/25 07:57:55;;;;;;;4.20;3.30;;;24.00;56.40;;;;;;5071815;27;20623;-73
2023/06/25 08:00:23;;;;;;;4.23;3.00;;;24.10;55.30;;;;;;5036854;27;20629;-73
2023/06/25 08:02:50;;;;;;;3.20;2.90;;;24.10;55.40;;;;;;5050943;27;20662;-73
2023/06/25 08:05:16;;;;;;;3.70;2.60;;;24.20;55.80;;;;;;5079972;27;20710;-73
2023/06/25 08:07:43;;;;;;;3.13;2.80;;;24.40;55.40;;;;;;5038317;27;20722;-73
2023/06/25 08:10:10;;;;;;;3.93;3.53;;;24.40;55.00;;;;;;5064223;27;20659;-73
2023/06/25 08:12:37;;;;;;;3.60;3.30;;;24.60;55.20;;;;;;5042528;27;20625;-73
2023/06/25 08:15:04;;;;;;;2.77;2.57;;;24.50;54.80;;;;;;5053749;27;20623;-73
2023/06/25 08:17:33;;;;;;;3.47;3.00;;;24.60;54.40;;;;;;5063419;27;20983;-73
2023/06/25 08:20:00;;;;;;;2.53;2.33;;;24.60;54.30;;;;;;5039116;27;20631;-73
2023/06/25 08:22:26;;;;;;;4.63;3.03;;;24.70;54.00;;;;;;5039433;27;20654;-73
2023/06/25 08:24:55;;;;;;;3.43;3.07;;;24.90;53.80;;;;;;5079719;27;20647;-73
2023/06/25 08:27:22;;;;;;;3.37;3.13;;;25.10;53.50;;;;;;5058371;27;20651;-73
2023/06/25 08:29:49;;;;;;;3.57;3.10;;;25.20;53.50;;;;;;5055732;27;20773;-73
2023/06/25 08:32:16;;;;;;;5.03;3.23;;;25.20;52.60;;;;;;5090816;27;20658;-73
2023/06/25 08:34:44;;;;;;;5.87;3.63;;;25.20;52.70;;;;;;5033922;27;20619;-73
2023/06/25 08:37:11;;;;;;;3.80;3.37;;;25.30;51.50;;;;;;5074424;27;20999;-73
2023/06/25 08:39:37;;;;;;;3.83;3.10;;;25.30;52.80;;;;;;5041920;27;20628;-73
2023/06/25 08:42:05;;;;;;;4.13;3.73;;;25.50;51.20;;;;;;5074729;27;20639;-73
2023/06/25 08:44:32;;;;;;;3.63;3.20;;;25.50;50.40;;;;;;5031664;28;20635;-73
2023/06/25 08:46:59;;;;;;;3.73;3.20;;;25.50;51.20;;;;;;5064105;27;20651;-73
2023/06/25 08:49:30;;;;;;;5.20;3.87;;;25.80;51.50;;;;;;5044576;27;21341;-73
2023/06/25 08:52:00;;;;;;;3.83;3.50;;;26.00;51.00;;;;;;5046172;27;20652;-73
2023/06/25 08:54:27;;;;;;;3.87;2.97;;;25.90;50.20;;;;;;5079598;27;20627;-73
2023/06/25 08:56:54;;;;;;;4.87;3.90;;;26.00;50.90;;;;;;5079640;27;20654;-73
2023/06/25 08:59:21;;;;;;;3.63;2.60;;;26.10;50.60;;;;;;5035958;28;20639;-73
2023/06/25 09:01:48;;;;;;;4.50;3.60;;;26.20;50.00;;;;;;5044047;27;20652;-73
2023/06/25 09:04:15;;;;;;;4.00;3.60;;;26.40;49.60;;;;;;5043008;27;20631;-73
2023/06/25 09:06:42;;;;;;;3.90;3.50;;;26.40;49.10;;;;;;5077384;27;20656;-73
2023/06/25 09:09:11;;;;;;;4.13;3.10;;;26.30;49.60;;;;;;5035728;28;20660;-73
2023/06/25 09:11:40;;;;;;;2.93;2.63;;;26.40;50.00;;;;;;5062721;27;21014;-73
2023/06/25 09:14:07;;;;;;;3.97;3.30;;;26.60;48.80;;;;;;5034736;27;20633;-73
2023/06/25 09:16:34;;;;;;;3.40;2.90;;;26.60;48.30;;;;;;5038971;28;20760;-73
2023/06/25 09:19:01;;;;;;;4.40;3.70;;;26.60;48.30;;;;;;5080806;27;20628;-73
2023/06/25 09:21:37;;;;;;;3.63;3.23;;;26.70;48.30;;;;;;5085374;27;20654;-73
2023/06/25 09:24:13;;;;;;;3.47;3.17;;;26.80;47.90;;;;;;5024687;28;21492;-73
2023/06/25 09:26:48;;;;;;;2.80;2.50;;;26.90;48.00;;;;;;5060949;27;20667;-73
2023/06/25 09:29:15;;;;;;;2.50;2.30;;;27.00;47.60;;;;;;5070321;27;20679;-73
2023/06/25 09:31:43;;;;;;;2.97;2.67;;;27.10;47.80;;;;;;5075260;27;20683;-73
2023/06/25 09:34:10;;;;;;;3.17;2.70;;;27.20;45.30;;;;;;5026661;27;20645;-73
2023/06/25 09:36:37;;;;;;;2.67;2.47;;;27.30;45.90;;;;;;5020802;28;20657;-73
2023/06/25 09:39:04;;;;;;;3.40;2.93;;;27.20;44.90;;;;;;5023645;28;20627;-73
2023/06/25 09:41:34;;;;;;;3.57;3.07;;;27.30;44.90;;;;;;5051358;27;21030;-73
2023/06/25 09:44:03;;;;;;;3.50;3.20;;;27.50;45.60;;;;;;5059995;27;20634;-73
2023/06/25 09:46:32;;;;;;;3.80;3.23;;;27.60;45.30;;;;;;5048635;27;20652;-73
2023/06/25 09:49:01;;;;;;;4.00;2.80;;;27.60;45.30;;;;;;5061207;27;20682;-73
2023/06/25 09:51:32;;;;;;;2.67;2.20;;;27.60;44.00;;;;;;5058939;27;20657;-73
2023/06/25 09:54:03;;;;;;;3.00;2.20;;;27.60;43.80;;;;;;5038943;28;21101;-73
2023/06/25 09:56:32;;;;;;;3.30;2.87;;;27.80;41.70;;;;;;5037711;27;20666;-73
2023/06/25 09:59:01;;;;;;;3.10;2.80;;;27.70;42.10;;;;;;5063549;27;21194;-73
2023/06/25 10:01:28;;;;;;;3.13;2.80;;;27.60;42.70;;;;;;5028099;28;21004;-73
2023/06/25 10:03:55;;;;;;;3.40;2.60;;;27.70;43.80;;;;;;5034362;28;20626;-73
2023/06/25 10:06:22;;;;;;;2.93;2.73;;;27.80;42.90;;;;;;5038418;27;20666;-73
2023/06/25 10:08:50;;;;;;;3.60;3.30;;;27.90;41.50;;;;;;5063395;27;20665;-73
2023/06/25 10:11:17;;;;;;;3.17;2.73;;;28.00;41.30;;;;;;5062475;27;20669;-73
2023/06/25 10:13:45;;;;;;;3.80;2.73;;;28.00;42.30;;;;;;5074500;27;20954;-73
2023/06/25 10:16:18;;;;;;;3.80;3.00;;;28.30;42.80;;;;;;5055676;27;20656;-73
2023/06/25 10:18:46;;;;;;;3.73;2.47;;;28.40;41.60;;;;;;5074254;27;20636;-73
2023/06/25 10:21:20;;;;;;;3.67;3.27;;;28.50;41.00;;;;;;5043125;27;20653;-73
2023/06/25 10:23:56;;;;;;;3.63;2.87;;;28.40;40.90;;;;;;5048953;27;20630;-73
2023/06/25 10:26:27;;;;;;;3.17;2.73;;;28.40;41.20;;;;;;5026131;28;20660;-73
2023/06/25 10:28:54;;;;;;;4.53;4.13;;;28.50;42.00;;;;;;5080233;27;21010;-73
2023/06/25 10:31:22;;;;;;;3.77;3.47;;;28.60;41.00;;;;;;5074432;27;20688;-73
2023/06/25 10:33:49;;;;;;;3.40;2.60;;;28.80;40.30;;;;;;5030261;28;20625;-73
2023/06/25 10:36:16;;;;;;;3.30;2.90;;;29.00;40.10;;;;;;5056201;27;21266;-73
2023/06/25 10:38:44;;;;;;;3.53;3.00;;;29.00;39.30;;;;;;5026746;27;20739;-73
2023/06/25 10:41:10;;;;;;;3.87;3.10;;;29.00;39.30;;;;;;5024977;28;20658;-73
2023/06/25 10:43:38;;;;;;;4.23;3.07;;;28.90;39.10;;;;;;5051205;27;20636;-73
2023/06/25 10:46:04;;;;;;;3.40;2.87;;;29.00;39.20;;;;;;5062406;27;20651;-73
2023/06/25 10:48:34;;;;;;;4.03;3.37;;;29.00;39.60;;;;;;5042728;27;20646;-73
2023/06/25 10:51:01;;;;;;;3.20;2.70;;;29.10;39.40;;;;;;5052039;27;21048;-73
2023/06/25 10:53:28;;;;;;;4.07;3.07;;;29.30;40.50;;;;;;5026661;28;20618;-73
2023/06/25 10:55:55;;;;;;;3.83;2.60;;;29.60;39.20;;;;;;5050134;27;20674;-73
2023/06/25 10:58:24;;;;;;;4.20;3.27;;;29.80;39.50;;;;;;5023749;28;21219;-73
2023/06/25 11:00:55;;;;;;;4.03;3.73;;;30.00;39.60;;;;;;5022815;28;20671;-73
2023/06/25 11:03:21;;;;;;;6.17;3.53;;;30.20;39.20;;;;;;5043991;27;21024;-71
2023/06/25 11:05:50;;;;;;;5.17;3.17;;;30.20;38.40;;;;;;5076408;27;20651;-74
2023/06/25 11:08:18;;;;;;;4.30;3.77;;;30.20;39.00;;;;;;5025646;28;20693;-71
2023/06/25 11:10:45;;;;;;;4.10;3.70;;;30.20;39.00;;;;;;5025579;28;20790;-72
2023/06/25 11:13:12;;;;;;;3.50;3.20;;;30.40;40.00;;;;;;5028741;28;20622;-72
2023/06/25 11:15:40;;;;;;;6.00;3.50;;;30.60;38.90;;;;;;5080108;27;20655;-72
2023/06/25 11:18:08;;;;;;;3.90;3.50;;;30.80;38.20;;;;;;5079570;27;20627;-72
2023/06/25 11:20:35;;;;;;;3.70;3.20;;;30.80;36.50;;;;;;5064740;27;21021;-72
2023/06/25 11:23:03;;;;;;;3.77;3.33;;;31.20;37.70;;;;;;5047471;28;20730;-72
2023/06/25 11:25:31;;;;;;;3.50;2.93;;;31.40;36.50;;;;;;5037498;28;21221;-72
2023/06/25 11:28:03;;;;;;;4.37;3.20;;;31.60;36.00;;;;;;5033933;28;20971;-72
2023/06/25 11:30:30;;;;;;;4.13;3.10;;;31.40;35.20;;;;;;5072107;27;20676;-72
2023/06/25 11:33:08;;;;;;;3.33;3.03;;;31.40;35.70;;;;;;5022541;28;20647;-72
2023/06/25 11:35:35;;;;;;;5.07;4.57;;;31.70;35.30;;;;;;5041647;28;20647;-72
2023/06/25 11:38:03;;;;;;;3.83;3.43;;;31.90;35.70;;;;;;5033239;28;20628;-72
2023/06/25 11:40:31;;;;;;;4.27;3.40;;;31.90;36.00;;;;;;5020818;28;20738;-72
2023/06/25 11:42:58;;;;;;;5.47;4.60;;;32.40;35.80;;;;;;5031976;28;20720;-72
2023/06/25 11:45:25;;;;;;;4.20;3.80;;;32.50;35.30;;;;;;5065069;28;20657;-72
2023/06/25 11:47:53;;;;;;;4.40;3.90;;;32.90;34.90;;;;;;5053697;28;20710;-72
2023/06/25 11:50:22;;;;;;;4.57;4.13;;;33.20;33.90;;;;;;5060998;28;20669;-72
2023/06/25 11:52:49;;;;;;;5.07;3.57;;;33.30;33.90;;;;;;5046329;28;20626;-72
2023/06/25 11:55:18;;;;;;;3.73;3.40;;;33.60;33.60;;;;;;5067371;28;20641;-72
2023/06/25 11:57:46;;;;;;;3.87;3.47;;;34.00;33.20;;;;;;5049549;27;20655;-74
2023/06/25 12:00:14;;;;;;;4.00;3.60;;;34.30;33.00;;;;;;5056052;27;20749;-72
2023/06/25 12:02:41;;;;;;;3.43;3.13;;;35.00;32.90;;;;;;5044262;28;20617;-72
2023/06/25 12:05:08;;;;;;;4.20;3.80;;;35.50;32.30;;;;;;5059500;28;20619;-72
2023/06/25 12:07:35;;;;;;;4.07;3.60;;;36.10;31.80;;;;;;5040944;28;20627;-70
2023/06/25 12:10:02;;;;;;;4.23;3.83;;;36.60;30.80;;;;;;5042341;28;20657;-73
2023/06/25 12:12:30;;;;;;;4.00;3.58;;;37.30;31.60;;;;;;5049374;28;20211;-73
2023/06/25 12:14:57;;;;;;;3.75;3.38;;;37.40;29.50;;;;;;5040264;27;20205;-73
2023/06/25 12:17:24;;;;;;;3.53;3.22;;;38.10;30.20;;;;;;5035556;27;20692;-72
2023/06/25 12:19:51;;;;;;;5.25;4.57;;;38.80;29.40;;;;;;5035122;28;20556;-74
2023/06/25 12:22:18;;;;;;;3.58;3.35;;;38.90;29.00;;;;;;5075723;27;20223;-73
2023/06/25 12:24:44;;;;;;;3.63;3.30;;;39.40;28.50;;;;;;5080611;27;20202;-73
2023/06/25 12:27:11;;;;;;;3.17;2.97;;;39.50;28.10;;;;;;5050467;27;20228;-73
2023/06/25 12:29:39;;;;;;;3.47;3.17;;;39.50;27.50;;;;;;5081793;27;20578;-73
2023/06/25 12:32:06;;;;;;;4.60;4.20;;;39.60;27.60;;;;;;5037845;28;20235;-73
2023/06/25 12:34:33;;;;;;;3.53;3.28;;;39.70;27.60;;;;;;5030832;28;20232;-73
2023/06/25 12:37:00;;;;;;;5.57;4.85;;;40.10;27.80;;;;;;5056427;27;20278;-73
2023/06/25 12:39:27;;;;;;;3.38;3.08;;;40.50;26.60;;;;;;5048402;27;20209;-73
2023/06/25 12:41:54;;;;;;;3.60;3.30;;;40.30;26.90;;;;;;5034453;27;20619;-74
2023/06/25 12:44:20;;;;;;;4.43;4.05;;;40.20;26.80;;;;;;5025545;28;20197;-73
2023/06/25 12:46:49;;;;;;;5.97;5.45;;;40.30;27.20;;;;;;5043237;27;20635;-73
2023/06/25 12:49:16;;;;;;;4.50;4.13;;;40.30;27.70;;;;;;5074848;27;20189;-73